sensor_id;sensor_type;location;lat;lon;timestamp;pressure;altitude;pressure_sealevel;temperature;humidity
10392;BME280;5242;49.244;6.774;2023-07-28T00:03:22;98871.97;;;17.86;nan
10392;BME280;5242;49.244;6.774;2023-07-28T00:11:15;98866.69;;;17.72;nan
10392;BME280;5242;49.244;6.774;2023-07-28T00:19:06;98858.03;;;17.70;nan
10392;BME280;5242;49.244;6.774;2023-07-28T00:26:58;98857.97;;;17.73;nan
10392;BME280;5242;49.244;6.774;2023-07-28T00:34:50;98848.22;;;17.69;nan
10392;BME280;5242;49.244;6.774;2023-07-28T00:42:42;98858.66;;;17.81;nan
10392;BME280;5242;49.244;6.774;2023-07-28T00:50:34;98860.06;;;17.66;nan
10392;BME280;5242;49.244;6.774;2023-07-28T00:58:26;98854.31;;;17.56;nan
10392;BME280;5242;49.244;6.774;2023-07-28T01:06:47;98853.22;;;17.50;nan
10392;BME280;5242;49.244;6.774;2023-07-28T01:14:40;98847.81;;;17.43;nan
10392;BME280;5242;49.244;6.774;2023-07-28T01:30:33;98849.44;;;17.41;nan
10392;BME280;5242;49.244;6.774;2023-07-28T01:38:25;98840.84;;;17.38;nan
10392;BME280;5242;49.244;6.774;2023-07-28T01:46:17;98840.88;;;17.35;nan
10392;BME280;5242;49.244;6.774;2023-07-28T01:54:09;98828.31;;;17.34;nan
10392;BME280;5242;49.244;6.774;2023-07-28T02:02:01;98840.09;;;17.34;nan
10392;BME280;5242;49.244;6.774;2023-07-28T02:09:53;98830.69;;;17.32;nan
10392;BME280;5242;49.244;6.774;2023-07-28T02:17:45;98840.56;;;17.29;nan
10392;BME280;5242;49.244;6.774;2023-07-28T02:25:37;98827.94;;;17.32;nan
10392;BME280;5242;49.244;6.774;2023-07-28T02:33:28;98825.13;;;17.35;nan
10392;BME280;5242;49.244;6.774;2023-07-28T02:41:27;98832.09;;;17.44;nan
10392;BME280;5242;49.244;6.774;2023-07-28T02:49:19;98836.13;;;17.35;nan
10392;BME280;5242;49.244;6.774;2023-07-28T02:57:10;98825.13;;;17.35;nan
10392;BME280;5242;49.244;6.774;2023-07-28T03:05:02;98831.78;;;17.38;nan
10392;BME280;5242;49.244;6.774;2023-07-28T03:12:55;98840.78;;;17.42;nan
10392;BME280;5242;49.244;6.774;2023-07-28T03:20:47;98850.16;;;17.45;nan
10392;BME280;5242;49.244;6.774;2023-07-28T03:28:39;98861.25;;;17.41;nan
10392;BME280;5242;49.244;6.774;2023-07-28T03:36:31;98863.63;;;17.39;nan
10392;BME280;5242;49.244;6.774;2023-07-28T03:44:24;98864.06;;;17.61;nan
10392;BME280;5242;49.244;6.774;2023-07-28T03:52:16;98858.34;;;17.48;nan
10392;BME280;5242;49.244;6.774;2023-07-28T04:00:08;98872.97;;;17.45;nan
10392;BME280;5242;49.244;6.774;2023-07-28T04:08:00;98870.63;;;17.44;nan
10392;BME280;5242;49.244;6.774;2023-07-28T04:15:52;98869.84;;;17.43;nan
10392;BME280;5242;49.244;6.774;2023-07-28T04:23:44;98875.63;;;17.76;nan
10392;BME280;5242;49.244;6.774;2023-07-28T04:31:36;98870.38;;;17.62;nan
10392;BME280;5242;49.244;6.774;2023-07-28T04:39:28;98871.91;;;17.63;nan
10392;BME280;5242;49.244;6.774;2023-07-28T04:47:20;98873.47;;;17.64;nan
10392;BME280;5242;49.244;6.774;2023-07-28T04:55:12;98882.94;;;17.63;nan
10392;BME280;5242;49.244;6.774;2023-07-28T05:03:04;98900.19;;;17.67;nan
10392;BME280;5242;49.244;6.774;2023-07-28T05:10:56;98908.31;;;17.74;nan
10392;BME280;5242;49.244;6.774;2023-07-28T05:18:48;98895.56;;;17.87;nan
10392;BME280;5242;49.244;6.774;2023-07-28T05:26:40;98900.44;;;18.03;nan
10392;BME280;5242;49.244;6.774;2023-07-28T05:34:32;98913.72;;;18.08;nan
10392;BME280;5242;49.244;6.774;2023-07-28T05:42:24;98909.78;;;18.53;nan
10392;BME280;5242;49.244;6.774;2023-07-28T05:50:17;98915.09;;;18.43;nan
10392;BME280;5242;49.244;6.774;2023-07-28T05:58:09;98923.34;;;18.43;nan
10392;BME280;5242;49.244;6.774;2023-07-28T06:06:01;98918.63;;;18.44;nan
10392;BME280;5242;49.244;6.774;2023-07-28T06:13:53;98922.31;;;18.57;nan
10392;BME280;5242;49.244;6.774;2023-07-28T06:21:45;98929.44;;;18.55;nan
10392;BME280;5242;49.244;6.774;2023-07-28T06:29:37;98944.06;;;18.75;nan
10392;BME280;5242;49.244;6.774;2023-07-28T06:37:28;98937.34;;;18.53;nan
10392;BME280;5242;49.244;6.774;2023-07-28T06:45:20;98954.75;;;18.50;nan
10392;BME280;5242;49.244;6.774;2023-07-28T06:53:12;98959.03;;;18.51;nan
10392;BME280;5242;49.244;6.774;2023-07-28T07:01:04;98959.28;;;18.60;nan
10392;BME280;5242;49.244;6.774;2023-07-28T07:08:56;98969.47;;;18.86;nan
10392;BME280;5242;49.244;6.774;2023-07-28T07:16:49;98982.19;;;19.40;nan
10392;BME280;5242;49.244;6.774;2023-07-28T07:24:41;98989.81;;;19.72;nan
10392;BME280;5242;49.244;6.774;2023-07-28T07:32:33;98991.88;;;19.68;nan
10392;BME280;5242;49.244;6.774;2023-07-28T07:40:26;98996.47;;;19.55;nan
10392;BME280;5242;49.244;6.774;2023-07-28T07:48:19;98996.84;;;19.57;nan
10392;BME280;5242;49.244;6.774;2023-07-28T07:56:11;99008.59;;;19.61;nan
10392;BME280;5242;49.244;6.774;2023-07-28T08:04:04;99007.38;;;19.82;nan
10392;BME280;5242;49.244;6.774;2023-07-28T08:11:56;99003.53;;;20.12;nan
10392;BME280;5242;49.244;6.774;2023-07-28T08:19:48;98995.06;;;20.36;nan
10392;BME280;5242;49.244;6.774;2023-07-28T08:27:40;98997.53;;;20.79;nan
10392;BME280;5242;49.244;6.774;2023-07-28T08:35:32;98996.91;;;20.88;nan
10392;BME280;5242;49.244;6.774;2023-07-28T08:43:24;98987.00;;;21.03;nan
10392;BME280;5242;49.244;6.774;2023-07-28T08:51:16;98993.31;;;21.33;nan
10392;BME280;5242;49.244;6.774;2023-07-28T08:59:08;99007.19;;;21.04;nan
10392;BME280;5242;49.244;6.774;2023-07-28T09:07:04;99008.28;;;21.06;nan
10392;BME280;5242;49.244;6.774;2023-07-28T09:14:57;99012.13;;;20.96;nan
10392;BME280;5242;49.244;6.774;2023-07-28T09:22:50;99027.22;;;20.79;nan
10392;BME280;5242;49.244;6.774;2023-07-28T09:30:44;99040.97;;;20.66;nan
10392;BME280;5242;49.244;6.774;2023-07-28T09:38:38;99045.19;;;20.54;nan
10392;BME280;5242;49.244;6.774;2023-07-28T09:46:35;99044.78;;;20.56;nan
10392;BME280;5242;49.244;6.774;2023-07-28T09:54:30;99036.47;;;20.56;nan
10392;BME280;5242;49.244;6.774;2023-07-28T10:02:25;99045.69;;;20.49;nan
10392;BME280;5242;49.244;6.774;2023-07-28T10:10:18;99046.22;;;20.44;nan
10392;BME280;5242;49.244;6.774;2023-07-28T10:18:12;99055.03;;;20.39;nan
10392;BME280;5242;49.244;6.774;2023-07-28T10:26:04;99048.88;;;20.48;nan
10392;BME280;5242;49.244;6.774;2023-07-28T10:34:00;99052.81;;;20.67;nan
10392;BME280;5242;49.244;6.774;2023-07-28T10:42:04;99067.66;;;20.73;nan
10392;BME280;5242;49.244;6.774;2023-07-28T10:50:02;99070.34;;;20.60;nan
10392;BME280;5242;49.244;6.774;2023-07-28T10:57:56;99059.16;;;20.47;nan
10392;BME280;5242;49.244;6.774;2023-07-28T11:05:50;99057.63;;;20.62;nan
10392;BME280;5242;49.244;6.774;2023-07-28T11:13:42;99048.69;;;21.04;nan
10392;BME280;5242;49.244;6.774;2023-07-28T11:21:38;99054.72;;;21.44;nan
10392;BME280;5242;49.244;6.774;2023-07-28T11:29:31;99052.69;;;21.32;nan
10392;BME280;5242;49.244;6.774;2023-07-28T11:37:23;99063.25;;;21.21;nan
10392;BME280;5242;49.244;6.774;2023-07-28T11:45:17;99049.94;;;21.16;nan
10392;BME280;5242;49.244;6.774;2023-07-28T11:53:14;99053.06;;;21.18;nan
10392;BME280;5242;49.244;6.774;2023-07-28T12:01:08;99048.00;;;21.58;nan
10392;BME280;5242;49.244;6.774;2023-07-28T12:09:09;99044.84;;;21.98;nan
10392;BME280;5242;49.244;6.774;2023-07-28T12:17:01;99047.50;;;22.02;nan
10392;BME280;5242;49.244;6.774;2023-07-28T12:24:57;99036.53;;;22.24;nan
10392;BME280;5242;49.244;6.774;2023-07-28T12:32:49;99043.53;;;22.28;nan
10392;BME280;5242;49.244;6.774;2023-07-28T12:40:44;99061.72;;;22.04;nan
10392;BME280;5242;49.244;6.774;2023-07-28T12:48:38;99064.53;;;21.62;nan
10392;BME280;5242;49.244;6.774;2023-07-28T12:56:33;99070.34;;;21.38;nan
10392;BME280;5242;49.244;6.774;2023-07-28T13:04:29;99077.56;;;21.48;nan
10392;BME280;5242;49.244;6.774;2023-07-28T13:12:21;99068.88;;;21.63;nan
10392;BME280;5242;49.244;6.774;2023-07-28T13:20:15;99080.75;;;21.47;nan
10392;BME280;5242;49.244;6.774;2023-07-28T13:28:07;99084.91;;;21.55;nan
10392;BME280;5242;49.244;6.774;2023-07-28T13:36:03;99086.81;;;21.58;nan
10392;BME280;5242;49.244;6.774;2023-07-28T13:43:58;99094.88;;;21.36;nan
10392;BME280;5242;49.244;6.774;2023-07-28T13:51:54;99084.06;;;21.13;nan
10392;BME280;5242;49.244;6.774;2023-07-28T13:59:48;99080.69;;;21.05;nan
10392;BME280;5242;49.244;6.774;2023-07-28T14:07:41;99081.63;;;21.15;nan
10392;BME280;5242;49.244;6.774;2023-07-28T14:15:34;99078.66;;;21.38;nan
10392;BME280;5242;49.244;6.774;2023-07-28T14:23:27;99068.59;;;21.28;nan
10392;BME280;5242;49.244;6.774;2023-07-28T14:31:19;99068.25;;;21.42;nan
10392;BME280;5242;49.244;6.774;2023-07-28T14:39:11;99061.16;;;22.09;nan
10392;BME280;5242;49.244;6.774;2023-07-28T14:47:04;99061.41;;;22.88;nan
10392;BME280;5242;49.244;6.774;2023-07-28T14:54:56;99059.88;;;22.87;nan
10392;BME280;5242;49.244;6.774;2023-07-28T15:02:47;99069.94;;;22.46;nan
10392;BME280;5242;49.244;6.774;2023-07-28T15:10:39;99068.81;;;22.18;nan
10392;BME280;5242;49.244;6.774;2023-07-28T15:18:31;99066.59;;;22.00;nan
10392;BME280;5242;49.244;6.774;2023-07-28T15:26:24;99064.56;;;21.87;nan
10392;BME280;5242;49.244;6.774;2023-07-28T15:34:16;99062.47;;;21.91;nan
10392;BME280;5242;49.244;6.774;2023-07-28T15:42:08;99063.91;;;21.83;nan
10392;BME280;5242;49.244;6.774;2023-07-28T15:50:00;99067.28;;;21.62;nan
10392;BME280;5242;49.244;6.774;2023-07-28T15:57:52;99064.09;;;21.63;nan
10392;BME280;5242;49.244;6.774;2023-07-28T16:05:44;99078.03;;;21.60;nan
10392;BME280;5242;49.244;6.774;2023-07-28T16:13:36;99075.06;;;21.67;nan
10392;BME280;5242;49.244;6.774;2023-07-28T16:21:28;99076.31;;;21.79;nan
10392;BME280;5242;49.244;6.774;2023-07-28T16:29:20;99067.53;;;21.80;nan
10392;BME280;5242;49.244;6.774;2023-07-28T16:37:12;99062.84;;;22.32;nan
10392;BME280;5242;49.244;6.774;2023-07-28T16:45:04;99051.59;;;22.61;nan
10392;BME280;5242;49.244;6.774;2023-07-28T16:52:57;99043.50;;;22.54;nan
10392;BME280;5242;49.244;6.774;2023-07-28T17:00:48;99061.28;;;22.44;nan
10392;BME280;5242;49.244;6.774;2023-07-28T17:08:40;99066.63;;;22.25;nan
10392;BME280;5242;49.244;6.774;2023-07-28T17:16:32;99063.47;;;22.10;nan
10392;BME280;5242;49.244;6.774;2023-07-28T17:24:24;99065.13;;;22.08;nan
10392;BME280;5242;49.244;6.774;2023-07-28T17:32:16;99055.28;;;22.07;nan
10392;BME280;5242;49.244;6.774;2023-07-28T17:40:08;99076.31;;;21.79;nan
10392;BME280;5242;49.244;6.774;2023-07-28T17:48:01;99074.38;;;21.50;nan
10392;BME280;5242;49.244;6.774;2023-07-28T17:55:54;99086.72;;;21.16;nan
10392;BME280;5242;49.244;6.774;2023-07-28T18:03:46;99091.53;;;20.83;nan
10392;BME280;5242;49.244;6.774;2023-07-28T18:11:42;99096.72;;;20.65;nan
10392;BME280;5242;49.244;6.774;2023-07-28T18:19:34;99092.56;;;20.56;nan
10392;BME280;5242;49.244;6.774;2023-07-28T18:27:26;99103.78;;;20.49;nan
10392;BME280;5242;49.244;6.774;2023-07-28T18:35:18;99095.72;;;20.38;nan
10392;BME280;5242;49.244;6.774;2023-07-28T18:43:10;99098.03;;;20.24;nan
10392;BME280;5242;49.244;6.774;2023-07-28T18:51:02;99109.22;;;20.00;nan
10392;BME280;5242;49.244;6.774;2023-07-28T18:58:55;99095.78;;;19.82;nan
10392;BME280;5242;49.244;6.774;2023-07-28T19:06:47;99082.66;;;19.66;nan
10392;BME280;5242;49.244;6.774;2023-07-28T19:14:39;99078.13;;;19.56;nan
10392;BME280;5242;49.244;6.774;2023-07-28T19:22:31;99071.19;;;19.48;nan
10392;BME280;5242;49.244;6.774;2023-07-28T19:30:22;99076.88;;;19.41;nan
10392;BME280;5242;49.244;6.774;2023-07-28T19:38:14;99054.97;;;19.30;nan
10392;BME280;5242;49.244;6.774;2023-07-28T19:46:06;99067.78;;;19.20;nan
10392;BME280;5242;49.244;6.774;2023-07-28T19:53:59;99076.03;;;19.00;nan
10392;BME280;5242;49.244;6.774;2023-07-28T20:01:51;99087.31;;;18.86;nan
10392;BME280;5242;49.244;6.774;2023-07-28T20:09:43;99084.63;;;18.82;nan
10392;BME280;5242;49.244;6.774;2023-07-28T20:17:35;99093.75;;;18.79;nan
10392;BME280;5242;49.244;6.774;2023-07-28T20:25:27;99089.41;;;18.78;nan
10392;BME280;5242;49.244;6.774;2023-07-28T20:33:19;99090.25;;;18.75;nan
10392;BME280;5242;49.244;6.774;2023-07-28T20:41:11;99075.69;;;18.71;nan
10392;BME280;5242;49.244;6.774;2023-07-28T20:49:03;99071.94;;;18.61;nan
10392;BME280;5242;49.244;6.774;2023-07-28T20:56:55;99067.41;;;18.47;nan
10392;BME280;5242;49.244;6.774;2023-07-28T21:04:49;99060.88;;;18.38;nan
10392;BME280;5242;49.244;6.774;2023-07-28T21:12:40;99071.59;;;18.32;nan
10392;BME280;5242;49.244;6.774;2023-07-28T21:20:33;99071.59;;;18.32;nan
10392;BME280;5242;49.244;6.774;2023-07-28T21:28:25;99072.44;;;18.29;nan
10392;BME280;5242;49.244;6.774;2023-07-28T21:36:17;99061.41;;;18.29;nan
10392;BME280;5242;49.244;6.774;2023-07-28T21:44:09;99058.34;;;18.23;nan
10392;BME280;5242;49.244;6.774;2023-07-28T21:52:01;99053.72;;;18.17;nan
10392;BME280;5242;49.244;6.774;2023-07-28T21:59:53;99050.34;;;18.06;nan
10392;BME280;5242;49.244;6.774;2023-07-28T22:07:45;99053.19;;;17.98;nan
10392;BME280;5242;49.244;6.774;2023-07-28T22:15:37;99048.59;;;17.88;nan
10392;BME280;5242;49.244;6.774;2023-07-28T22:23:29;99043.97;;;17.81;nan
10392;BME280;5242;49.244;6.774;2023-07-28T22:31:21;99039.31;;;17.75;nan
10392;BME280;5242;49.244;6.774;2023-07-28T22:39:13;99038.56;;;17.71;nan
10392;BME280;5242;49.244;6.774;2023-07-28T22:47:05;99024.09;;;17.67;nan
10392;BME280;5242;49.244;6.774;2023-07-28T22:54:57;99029.22;;;17.65;nan
10392;BME280;5242;49.244;6.774;2023-07-28T23:03:06;99032.34;;;17.67;nan
10392;BME280;5242;49.244;6.774;2023-07-28T23:10:58;99027.53;;;17.74;nan
10392;BME280;5242;49.244;6.774;2023-07-28T23:18:49;99012.44;;;17.86;nan
10392;BME280;5242;49.244;6.774;2023-07-28T23:26:41;99010.66;;;17.99;nan
10392;BME280;5242;49.244;6.774;2023-07-28T23:34:33;99007.41;;;18.08;nan
10392;BME280;5242;49.244;6.774;2023-07-28T23:42:25;99002.56;;;18.16;nan
10392;BME280;5242;49.244;6.774;2023-07-28T23:50:17;98996.22;;;18.19;nan
10392;BME280;5242;49.244;6.774;2023-07-28T23:58:09;98987.09;;;18.22;nan
